sensor_id;sensor_type;location;lat;lon;timestamp;temperature;humidity
38941;DHT22;43236;47.208;7.518;2022-10-16T00:00:39;17.00;99.90
38941;DHT22;43236;47.208;7.518;2022-10-16T00:03:26;17.00;99.90
38941;DHT22;43236;47.208;7.518;2022-10-16T00:06:15;17.00;99.90
38941;DHT22;43236;47.208;7.518;2022-10-16T00:09:02;17.00;99.90
38941;DHT22;43236;47.208;7.518;2022-10-16T00:11:49;17.00;99.90
38941;DHT22;43236;47.208;7.518;2022-10-16T00:14:36;16.90;99.90
38941;DHT22;43236;47.208;7.518;2022-10-16T00:17:29;17.00;99.90
38941;DHT22;43236;47.208;7.518;2022-10-16T00:20:16;16.90;99.90
38941;DHT22;43236;47.208;7.518;2022-10-16T00:23:03;16.90;99.90
38941;DHT22;43236;47.208;7.518;2022-10-16T00:25:55;16.90;99.90
38941;DHT22;43236;47.208;7.518;2022-10-16T00:28:44;16.80;99.90
38941;DHT22;43236;47.208;7.518;2022-10-16T00:31:32;16.90;99.90
38941;DHT22;43236;47.208;7.518;2022-10-16T00:34:20;16.80;99.90
38941;DHT22;43236;47.208;7.518;2022-10-16T00:37:07;16.80;99.90
38941;DHT22;43236;47.208;7.518;2022-10-16T00:39:54;16.80;99.90
38941;DHT22;43236;47.208;7.518;2022-10-16T00:42:41;16.80;99.90
38941;DHT22;43236;47.208;7.518;2022-10-16T00:45:28;16.90;99.90
38941;DHT22;43236;47.208;7.518;2022-10-16T00:48:21;16.80;99.90
38941;DHT22;43236;47.208;7.518;2022-10-16T00:51:10;16.90;99.90
38941;DHT22;43236;47.208;7.518;2022-10-16T00:53:57;16.80;99.90
38941;DHT22;43236;47.208;7.518;2022-10-16T00:56:46;16.90;99.90
38941;DHT22;43236;47.208;7.518;2022-10-16T00:59:35;16.80;99.90
38941;DHT22;43236;47.208;7.518;2022-10-16T01:02:22;16.90;99.90
38941;DHT22;43236;47.208;7.518;2022-10-16T01:05:09;16.80;99.90
38941;DHT22;43236;47.208;7.518;2022-10-16T01:08:03;16.80;99.90
38941;DHT22;43236;47.208;7.518;2022-10-16T01:10:52;16.80;99.90
38941;DHT22;43236;47.208;7.518;2022-10-16T01:13:46;16.80;99.90
38941;DHT22;43236;47.208;7.518;2022-10-16T01:16:40;16.80;99.90
38941;DHT22;43236;47.208;7.518;2022-10-16T01:19:44;16.80;99.90
38941;DHT22;43236;47.208;7.518;2022-10-16T01:22:43;16.70;99.90
38941;DHT22;43236;47.208;7.518;2022-10-16T01:25:36;16.70;99.90
38941;DHT22;43236;47.208;7.518;2022-10-16T01:28:29;16.70;99.90
38941;DHT22;43236;47.208;7.518;2022-10-16T01:31:22;16.70;99.90
38941;DHT22;43236;47.208;7.518;2022-10-16T01:34:15;16.70;99.90
38941;DHT22;43236;47.208;7.518;2022-10-16T01:37:08;16.70;99.90
38941;DHT22;43236;47.208;7.518;2022-10-16T01:39:59;16.70;99.90
38941;DHT22;43236;47.208;7.518;2022-10-16T01:42:49;16.70;99.90
38941;DHT22;43236;47.208;7.518;2022-10-16T01:45:40;16.60;99.90
38941;DHT22;43236;47.208;7.518;2022-10-16T01:48:29;16.60;99.90
38941;DHT22;43236;47.208;7.518;2022-10-16T01:51:17;16.60;99.90
38941;DHT22;43236;47.208;7.518;2022-10-16T01:54:08;16.60;99.90
38941;DHT22;43236;47.208;7.518;2022-10-16T01:56:57;16.60;99.90
38941;DHT22;43236;47.208;7.518;2022-10-16T01:59:46;16.60;99.90
38941;DHT22;43236;47.208;7.518;2022-10-16T02:02:36;16.60;99.90
38941;DHT22;43236;47.208;7.518;2022-10-16T02:05:28;16.60;99.90
38941;DHT22;43236;47.208;7.518;2022-10-16T02:08:17;16.60;99.90
38941;DHT22;43236;47.208;7.518;2022-10-16T02:11:04;16.60;99.90
38941;DHT22;43236;47.208;7.518;2022-10-16T02:13:55;16.60;99.90
38941;DHT22;43236;47.208;7.518;2022-10-16T02:16:45;16.60;99.90
38941;DHT22;43236;47.208;7.518;2022-10-16T02:19:34;16.60;99.90
38941;DHT22;43236;47.208;7.518;2022-10-16T02:22:24;16.60;99.90
38941;DHT22;43236;47.208;7.518;2022-10-16T02:25:17;16.60;99.90
38941;DHT22;43236;47.208;7.518;2022-10-16T02:28:09;16.60;99.90
38941;DHT22;43236;47.208;7.518;2022-10-16T02:31:01;16.60;99.90
38941;DHT22;43236;47.208;7.518;2022-10-16T02:33:51;16.60;99.90
38941;DHT22;43236;47.208;7.518;2022-10-16T02:36:41;16.50;99.90
38941;DHT22;43236;47.208;7.518;2022-10-16T02:39:29;16.60;99.90
38941;DHT22;43236;47.208;7.518;2022-10-16T02:42:18;16.60;99.90
38941;DHT22;43236;47.208;7.518;2022-10-16T02:45:06;16.60;99.90
38941;DHT22;43236;47.208;7.518;2022-10-16T02:47:54;16.60;99.90
38941;DHT22;43236;47.208;7.518;2022-10-16T02:50:41;16.60;99.90
38941;DHT22;43236;47.208;7.518;2022-10-16T02:53:29;16.60;99.90
38941;DHT22;43236;47.208;7.518;2022-10-16T02:56:16;16.50;99.90
38941;DHT22;43236;47.208;7.518;2022-10-16T02:59:03;16.50;99.90
38941;DHT22;43236;47.208;7.518;2022-10-16T03:01:50;16.50;99.90
38941;DHT22;43236;47.208;7.518;2022-10-16T03:04:37;16.60;99.90
38941;DHT22;43236;47.208;7.518;2022-10-16T03:07:24;16.60;99.90
38941;DHT22;43236;47.208;7.518;2022-10-16T03:10:13;16.50;99.90
38941;DHT22;43236;47.208;7.518;2022-10-16T03:13:00;16.60;99.90
38941;DHT22;43236;47.208;7.518;2022-10-16T03:15:47;16.50;99.90
38941;DHT22;43236;47.208;7.518;2022-10-16T03:18:34;16.50;99.90
38941;DHT22;43236;47.208;7.518;2022-10-16T03:21:21;16.60;99.90
38941;DHT22;43236;47.208;7.518;2022-10-16T03:24:08;16.50;99.90
38941;DHT22;43236;47.208;7.518;2022-10-16T03:26:56;16.50;99.90
38941;DHT22;43236;47.208;7.518;2022-10-16T03:29:43;16.50;99.90
38941;DHT22;43236;47.208;7.518;2022-10-16T03:32:30;16.60;99.90
38941;DHT22;43236;47.208;7.518;2022-10-16T03:35:17;16.60;99.90
38941;DHT22;43236;47.208;7.518;2022-10-16T03:38:04;16.60;99.90
38941;DHT22;43236;47.208;7.518;2022-10-16T03:40:51;16.50;99.90
38941;DHT22;43236;47.208;7.518;2022-10-16T03:43:40;16.60;99.90
38941;DHT22;43236;47.208;7.518;2022-10-16T03:46:27;16.50;99.90
38941;DHT22;43236;47.208;7.518;2022-10-16T03:49:15;16.60;99.90
38941;DHT22;43236;47.208;7.518;2022-10-16T03:52:02;16.50;99.90
38941;DHT22;43236;47.208;7.518;2022-10-16T03:54:49;16.60;99.90
38941;DHT22;43236;47.208;7.518;2022-10-16T03:57:36;16.50;99.90
38941;DHT22;43236;47.208;7.518;2022-10-16T04:00:24;16.50;99.90
38941;DHT22;43236;47.208;7.518;2022-10-16T04:03:12;16.50;99.90
38941;DHT22;43236;47.208;7.518;2022-10-16T04:05:59;16.50;99.90
38941;DHT22;43236;47.208;7.518;2022-10-16T04:08:46;16.50;99.90
38941;DHT22;43236;47.208;7.518;2022-10-16T04:11:33;16.70;99.90
38941;DHT22;43236;47.208;7.518;2022-10-16T04:14:20;16.50;99.90
38941;DHT22;43236;47.208;7.518;2022-10-16T04:17:08;16.50;99.90
38941;DHT22;43236;47.208;7.518;2022-10-16T04:19:55;16.50;99.90
38941;DHT22;43236;47.208;7.518;2022-10-16T04:22:42;16.50;99.90
38941;DHT22;43236;47.208;7.518;2022-10-16T04:25:30;16.50;99.90
38941;DHT22;43236;47.208;7.518;2022-10-16T04:28:17;16.50;99.90
38941;DHT22;43236;47.208;7.518;2022-10-16T04:31:05;16.50;99.90
38941;DHT22;43236;47.208;7.518;2022-10-16T04:33:53;16.50;99.90
38941;DHT22;43236;47.208;7.518;2022-10-16T04:36:40;16.50;99.90
38941;DHT22;43236;47.208;7.518;2022-10-16T04:39:27;16.50;99.90
38941;DHT22;43236;47.208;7.518;2022-10-16T04:42:14;16.50;99.90
38941;DHT22;43236;47.208;7.518;2022-10-16T04:45:02;16.40;99.90
38941;DHT22;43236;47.208;7.518;2022-10-16T04:47:51;16.40;99.90
38941;DHT22;43236;47.208;7.518;2022-10-16T04:50:40;16.40;99.90
38941;DHT22;43236;47.208;7.518;2022-10-16T04:53:27;16.40;99.90
38941;DHT22;43236;47.208;7.518;2022-10-16T04:56:14;16.40;99.90
38941;DHT22;43236;47.208;7.518;2022-10-16T04:59:01;16.40;99.90
38941;DHT22;43236;47.208;7.518;2022-10-16T05:01:49;16.40;99.90
38941;DHT22;43236;47.208;7.518;2022-10-16T05:04:36;16.30;99.90
38941;DHT22;43236;47.208;7.518;2022-10-16T05:07:24;16.40;99.90
38941;DHT22;43236;47.208;7.518;2022-10-16T05:10:11;16.40;99.90
38941;DHT22;43236;47.208;7.518;2022-10-16T05:12:59;16.40;99.90
38941;DHT22;43236;47.208;7.518;2022-10-16T05:15:47;16.40;99.90
38941;DHT22;43236;47.208;7.518;2022-10-16T05:18:34;16.40;99.90
38941;DHT22;43236;47.208;7.518;2022-10-16T05:21:22;16.40;99.90
38941;DHT22;43236;47.208;7.518;2022-10-16T05:24:10;16.40;99.90
38941;DHT22;43236;47.208;7.518;2022-10-16T05:26:57;16.40;99.90
38941;DHT22;43236;47.208;7.518;2022-10-16T05:29:45;16.30;99.90
38941;DHT22;43236;47.208;7.518;2022-10-16T05:32:32;16.30;99.90
38941;DHT22;43236;47.208;7.518;2022-10-16T05:35:19;16.40;99.90
38941;DHT22;43236;47.208;7.518;2022-10-16T05:38:06;16.30;99.90
38941;DHT22;43236;47.208;7.518;2022-10-16T05:40:55;16.30;99.90
38941;DHT22;43236;47.208;7.518;2022-10-16T05:43:43;16.30;99.90
38941;DHT22;43236;47.208;7.518;2022-10-16T05:46:30;16.30;99.90
38941;DHT22;43236;47.208;7.518;2022-10-16T05:49:17;16.30;99.90
38941;DHT22;43236;47.208;7.518;2022-10-16T05:52:04;16.20;99.90
38941;DHT22;43236;47.208;7.518;2022-10-16T05:54:51;16.20;99.90
38941;DHT22;43236;47.208;7.518;2022-10-16T05:57:39;16.20;99.90
38941;DHT22;43236;47.208;7.518;2022-10-16T06:00:26;16.20;99.90
38941;DHT22;43236;47.208;7.518;2022-10-16T06:03:13;16.20;99.90
38941;DHT22;43236;47.208;7.518;2022-10-16T06:06:07;16.20;99.90
38941;DHT22;43236;47.208;7.518;2022-10-16T06:08:55;16.20;99.90
38941;DHT22;43236;47.208;7.518;2022-10-16T06:11:42;16.30;99.90
38941;DHT22;43236;47.208;7.518;2022-10-16T06:14:32;16.30;99.90
38941;DHT22;43236;47.208;7.518;2022-10-16T06:17:19;16.20;99.90
38941;DHT22;43236;47.208;7.518;2022-10-16T06:20:06;16.30;99.90
38941;DHT22;43236;47.208;7.518;2022-10-16T06:22:53;16.20;99.90
38941;DHT22;43236;47.208;7.518;2022-10-16T06:25:40;16.20;99.90
38941;DHT22;43236;47.208;7.518;2022-10-16T06:28:27;16.20;99.90
38941;DHT22;43236;47.208;7.518;2022-10-16T06:31:17;16.20;99.90
38941;DHT22;43236;47.208;7.518;2022-10-16T06:34:04;16.20;99.90
38941;DHT22;43236;47.208;7.518;2022-10-16T06:36:55;16.20;99.90
38941;DHT22;43236;47.208;7.518;2022-10-16T06:39:42;16.10;99.90
38941;DHT22;43236;47.208;7.518;2022-10-16T06:42:29;16.10;99.90
38941;DHT22;43236;47.208;7.518;2022-10-16T06:45:16;16.10;99.90
38941;DHT22;43236;47.208;7.518;2022-10-16T06:48:04;16.10;99.90
38941;DHT22;43236;47.208;7.518;2022-10-16T06:50:58;16.10;99.90
38941;DHT22;43236;47.208;7.518;2022-10-16T06:53:47;16.10;99.90
38941;DHT22;43236;47.208;7.518;2022-10-16T06:56:36;16.10;99.90
38941;DHT22;43236;47.208;7.518;2022-10-16T06:59:23;16.10;99.90
38941;DHT22;43236;47.208;7.518;2022-10-16T07:02:10;16.10;99.90
38941;DHT22;43236;47.208;7.518;2022-10-16T07:04:58;16.10;99.90
38941;DHT22;43236;47.208;7.518;2022-10-16T07:07:45;16.10;99.90
38941;DHT22;43236;47.208;7.518;2022-10-16T07:10:32;16.10;99.90
38941;DHT22;43236;47.208;7.518;2022-10-16T07:13:19;16.10;99.90
38941;DHT22;43236;47.208;7.518;2022-10-16T07:16:08;16.10;99.90
38941;DHT22;43236;47.208;7.518;2022-10-16T07:18:56;16.10;99.90
38941;DHT22;43236;47.208;7.518;2022-10-16T07:21:46;16.10;99.90
38941;DHT22;43236;47.208;7.518;2022-10-16T07:24:33;16.10;99.90
38941;DHT22;43236;47.208;7.518;2022-10-16T07:27:20;16.10;99.90
38941;DHT22;43236;47.208;7.518;2022-10-16T07:30:10;16.10;99.90
38941;DHT22;43236;47.208;7.518;2022-10-16T07:32:57;16.10;99.90
38941;DHT22;43236;47.208;7.518;2022-10-16T07:35:50;16.10;99.90
38941;DHT22;43236;47.208;7.518;2022-10-16T07:38:39;16.10;99.90
38941;DHT22;43236;47.208;7.518;2022-10-16T07:41:28;16.10;99.90
38941;DHT22;43236;47.208;7.518;2022-10-16T07:44:15;16.10;99.90
38941;DHT22;43236;47.208;7.518;2022-10-16T07:47:02;16.10;99.90
38941;DHT22;43236;47.208;7.518;2022-10-16T07:49:49;16.10;99.90
38941;DHT22;43236;47.208;7.518;2022-10-16T07:52:36;16.10;99.90
38941;DHT22;43236;47.208;7.518;2022-10-16T07:55:25;16.30;99.90
38941;DHT22;43236;47.208;7.518;2022-10-16T07:58:12;16.20;99.90
38941;DHT22;43236;47.208;7.518;2022-10-16T08:01:03;16.30;99.90
38941;DHT22;43236;47.208;7.518;2022-10-16T08:03:51;16.30;99.90
38941;DHT22;43236;47.208;7.518;2022-10-16T08:06:39;16.30;99.90
38941;DHT22;43236;47.208;7.518;2022-10-16T08:09:27;16.40;99.90
38941;DHT22;43236;47.208;7.518;2022-10-16T08:12:16;16.40;99.90
38941;DHT22;43236;47.208;7.518;2022-10-16T08:15:04;16.40;99.90
38941;DHT22;43236;47.208;7.518;2022-10-16T08:17:59;16.40;99.90
38941;DHT22;43236;47.208;7.518;2022-10-16T08:20:46;16.40;99.90
38941;DHT22;43236;47.208;7.518;2022-10-16T08:23:33;16.50;99.90
38941;DHT22;43236;47.208;7.518;2022-10-16T08:26:20;16.50;99.90
38941;DHT22;43236;47.208;7.518;2022-10-16T08:29:09;16.50;99.90
38941;DHT22;43236;47.208;7.518;2022-10-16T08:31:56;16.60;99.90
38941;DHT22;43236;47.208;7.518;2022-10-16T08:34:43;16.70;99.90
38941;DHT22;43236;47.208;7.518;2022-10-16T08:37:30;16.70;99.90
38941;DHT22;43236;47.208;7.518;2022-10-16T08:40:19;16.80;99.90
38941;DHT22;43236;47.208;7.518;2022-10-16T08:43:26;16.80;99.90
38941;DHT22;43236;47.208;7.518;2022-10-16T08:46:24;16.90;99.90
38941;DHT22;43236;47.208;7.518;2022-10-16T08:49:13;17.00;99.90
38941;DHT22;43236;47.208;7.518;2022-10-16T08:52:00;17.00;99.90
38941;DHT22;43236;47.208;7.518;2022-10-16T08:54:50;17.10;99.90
38941;DHT22;43236;47.208;7.518;2022-10-16T08:57:40;17.10;99.90
38941;DHT22;43236;47.208;7.518;2022-10-16T09:00:30;17.20;99.90
38941;DHT22;43236;47.208;7.518;2022-10-16T09:03:29;17.20;99.90
38941;DHT22;43236;47.208;7.518;2022-10-16T09:06:35;17.20;99.90
38941;DHT22;43236;47.208;7.518;2022-10-16T09:09:47;17.20;99.90
38941;DHT22;43236;47.208;7.518;2022-10-16T09:12:40;17.30;99.90
38941;DHT22;43236;47.208;7.518;2022-10-16T09:15:32;17.40;99.90
38941;DHT22;43236;47.208;7.518;2022-10-16T09:18:27;17.40;99.90
38941;DHT22;43236;47.208;7.518;2022-10-16T09:21:21;17.50;99.90
38941;DHT22;43236;47.208;7.518;2022-10-16T09:24:13;17.70;99.90
38941;DHT22;43236;47.208;7.518;2022-10-16T09:27:00;17.60;99.90
38941;DHT22;43236;47.208;7.518;2022-10-16T09:29:48;17.60;99.90
38941;DHT22;43236;47.208;7.518;2022-10-16T09:32:35;17.60;99.90
38941;DHT22;43236;47.208;7.518;2022-10-16T09:35:31;17.70;99.90
38941;DHT22;43236;47.208;7.518;2022-10-16T09:38:25;17.70;99.90
38941;DHT22;43236;47.208;7.518;2022-10-16T09:41:18;17.70;99.90
38941;DHT22;43236;47.208;7.518;2022-10-16T09:44:18;17.70;99.90
38941;DHT22;43236;47.208;7.518;2022-10-16T09:47:13;17.80;99.90
38941;DHT22;43236;47.208;7.518;2022-10-16T09:50:13;17.80;99.90
38941;DHT22;43236;47.208;7.518;2022-10-16T09:53:11;17.80;99.90
38941;DHT22;43236;47.208;7.518;2022-10-16T09:55:58;17.80;99.90
38941;DHT22;43236;47.208;7.518;2022-10-16T09:58:49;17.80;99.90
38941;DHT22;43236;47.208;7.518;2022-10-16T10:01:38;17.90;99.90
38941;DHT22;43236;47.208;7.518;2022-10-16T10:04:37;17.90;99.90
38941;DHT22;43236;47.208;7.518;2022-10-16T10:07:27;18.00;99.90
38941;DHT22;43236;47.208;7.518;2022-10-16T10:10:22;18.00;99.90
38941;DHT22;43236;47.208;7.518;2022-10-16T10:13:17;18.00;99.90
38941;DHT22;43236;47.208;7.518;2022-10-16T10:16:06;18.10;99.90
38941;DHT22;43236;47.208;7.518;2022-10-16T10:18:58;18.20;99.90
38941;DHT22;43236;47.208;7.518;2022-10-16T10:21:46;18.20;99.90
38941;DHT22;43236;47.208;7.518;2022-10-16T10:24:33;18.20;99.90
38941;DHT22;43236;47.208;7.518;2022-10-16T10:27:29;18.50;99.90
38941;DHT22;43236;47.208;7.518;2022-10-16T10:30:22;18.30;99.90
38941;DHT22;43236;47.208;7.518;2022-10-16T10:33:21;18.30;99.90
38941;DHT22;43236;47.208;7.518;2022-10-16T10:36:17;18.30;99.90
38941;DHT22;43236;47.208;7.518;2022-10-16T10:39:08;18.40;99.90
38941;DHT22;43236;47.208;7.518;2022-10-16T10:42:09;18.40;99.90
38941;DHT22;43236;47.208;7.518;2022-10-16T10:45:25;18.50;99.90
38941;DHT22;43236;47.208;7.518;2022-10-16T10:48:28;18.60;99.90
38941;DHT22;43236;47.208;7.518;2022-10-16T10:51:24;18.60;99.90
38941;DHT22;43236;47.208;7.518;2022-10-16T10:54:20;18.70;99.90
38941;DHT22;43236;47.208;7.518;2022-10-16T10:57:12;18.70;99.90
38941;DHT22;43236;47.208;7.518;2022-10-16T11:00:13;18.80;99.90
38941;DHT22;43236;47.208;7.518;2022-10-16T11:03:17;18.80;99.90
38941;DHT22;43236;47.208;7.518;2022-10-16T11:06:11;18.90;99.90
38941;DHT22;43236;47.208;7.518;2022-10-16T11:09:02;19.00;99.90
38941;DHT22;43236;47.208;7.518;2022-10-16T11:11:59;19.00;99.90
38941;DHT22;43236;47.208;7.518;2022-10-16T11:14:50;19.10;99.90
38941;DHT22;43236;47.208;7.518;2022-10-16T11:17:46;19.20;99.90
38941;DHT22;43236;47.208;7.518;2022-10-16T11:20:39;19.40;99.90
38941;DHT22;43236;47.208;7.518;2022-10-16T11:23:37;19.30;99.90
38941;DHT22;43236;47.208;7.518;2022-10-16T11:26:31;19.40;99.90
38941;DHT22;43236;47.208;7.518;2022-10-16T11:29:26;19.40;99.90
38941;DHT22;43236;47.208;7.518;2022-10-16T11:32:22;19.80;99.90
38941;DHT22;43236;47.208;7.518;2022-10-16T11:35:15;19.50;99.90
38941;DHT22;43236;47.208;7.518;2022-10-16T11:38:11;19.60;99.90
38941;DHT22;43236;47.208;7.518;2022-10-16T11:41:02;19.70;99.90
38941;DHT22;43236;47.208;7.518;2022-10-16T11:43:56;19.70;99.90
38941;DHT22;43236;47.208;7.518;2022-10-16T11:46:51;19.70;99.90
38941;DHT22;43236;47.208;7.518;2022-10-16T11:49:40;19.70;99.90
38941;DHT22;43236;47.208;7.518;2022-10-16T11:52:33;19.80;99.90
38941;DHT22;43236;47.208;7.518;2022-10-16T11:55:26;19.80;99.90
38941;DHT22;43236;47.208;7.518;2022-10-16T11:58:24;19.90;99.90
38941;DHT22;43236;47.208;7.518;2022-10-16T12:01:19;19.90;99.90
38941;DHT22;43236;47.208;7.518;2022-10-16T12:04:17;20.00;99.90
38941;DHT22;43236;47.208;7.518;2022-10-16T12:07:08;20.00;99.90
38941;DHT22;43236;47.208;7.518;2022-10-16T12:09:58;20.00;99.90
38941;DHT22;43236;47.208;7.518;2022-10-16T12:12:57;20.00;99.90
38941;DHT22;43236;47.208;7.518;2022-10-16T12:15:44;20.00;99.90
38941;DHT22;43236;47.208;7.518;2022-10-16T12:18:31;20.00;99.90
38941;DHT22;43236;47.208;7.518;2022-10-16T12:21:30;20.00;99.90
38941;DHT22;43236;47.208;7.518;2022-10-16T12:24:35;20.00;99.90
38941;DHT22;43236;47.208;7.518;2022-10-16T12:27:27;20.10;99.90
38941;DHT22;43236;47.208;7.518;2022-10-16T12:30:23;20.10;99.90
38941;DHT22;43236;47.208;7.518;2022-10-16T12:33:20;20.10;99.90
38941;DHT22;43236;47.208;7.518;2022-10-16T12:36:13;20.10;99.90
38941;DHT22;43236;47.208;7.518;2022-10-16T12:39:02;20.20;99.90
38941;DHT22;43236;47.208;7.518;2022-10-16T12:42:00;20.20;99.90
38941;DHT22;43236;47.208;7.518;2022-10-16T12:44:48;20.20;99.90
38941;DHT22;43236;47.208;7.518;2022-10-16T12:47:47;20.20;99.90
38941;DHT22;43236;47.208;7.518;2022-10-16T12:50:37;20.20;99.90
38941;DHT22;43236;47.208;7.518;2022-10-16T12:53:26;20.30;99.90
38941;DHT22;43236;47.208;7.518;2022-10-16T12:56:19;20.30;99.90
38941;DHT22;43236;47.208;7.518;2022-10-16T12:59:20;20.30;99.90
38941;DHT22;43236;47.208;7.518;2022-10-16T13:02:39;20.30;99.90
38941;DHT22;43236;47.208;7.518;2022-10-16T13:05:41;20.30;99.90
38941;DHT22;43236;47.208;7.518;2022-10-16T13:08:51;20.30;99.90
38941;DHT22;43236;47.208;7.518;2022-10-16T13:15:05;20.30;99.90
38941;DHT22;43236;47.208;7.518;2022-10-16T13:18:02;20.30;99.90
38941;DHT22;43236;47.208;7.518;2022-10-16T13:21:04;20.30;99.60
38941;DHT22;43236;47.208;7.518;2022-10-16T13:23:58;20.30;99.90
38941;DHT22;43236;47.208;7.518;2022-10-16T13:26:54;20.30;99.90
38941;DHT22;43236;47.208;7.518;2022-10-16T13:29:43;20.30;99.90
38941;DHT22;43236;47.208;7.518;2022-10-16T13:32:31;20.30;99.90
38941;DHT22;43236;47.208;7.518;2022-10-16T13:35:24;20.30;99.90
38941;DHT22;43236;47.208;7.518;2022-10-16T13:38:13;20.30;99.90
38941;DHT22;43236;47.208;7.518;2022-10-16T13:41:02;20.30;99.60
38941;DHT22;43236;47.208;7.518;2022-10-16T13:43:52;20.30;99.80
38941;DHT22;43236;47.208;7.518;2022-10-16T13:46:41;20.30;99.70
38941;DHT22;43236;47.208;7.518;2022-10-16T13:49:28;20.30;99.10
38941;DHT22;43236;47.208;7.518;2022-10-16T13:52:19;20.40;98.40
38941;DHT22;43236;47.208;7.518;2022-10-16T13:55:10;20.50;98.90
38941;DHT22;43236;47.208;7.518;2022-10-16T13:58:05;20.50;99.50
38941;DHT22;43236;47.208;7.518;2022-10-16T14:00:56;20.50;99.30
38941;DHT22;43236;47.208;7.518;2022-10-16T14:03:44;20.50;99.20
38941;DHT22;43236;47.208;7.518;2022-10-16T14:06:31;20.50;98.50
38941;DHT22;43236;47.208;7.518;2022-10-16T14:09:24;20.50;99.90
38941;DHT22;43236;47.208;7.518;2022-10-16T14:12:12;20.50;99.20
38941;DHT22;43236;47.208;7.518;2022-10-16T14:14:59;20.50;98.90
38941;DHT22;43236;47.208;7.518;2022-10-16T14:17:50;20.50;99.10
38941;DHT22;43236;47.208;7.518;2022-10-16T14:20:38;20.50;99.20
38941;DHT22;43236;47.208;7.518;2022-10-16T14:23:29;20.60;98.80
38941;DHT22;43236;47.208;7.518;2022-10-16T14:26:20;20.50;98.20
38941;DHT22;43236;47.208;7.518;2022-10-16T14:29:13;20.50;99.10
38941;DHT22;43236;47.208;7.518;2022-10-16T14:32:02;20.60;98.50
38941;DHT22;43236;47.208;7.518;2022-10-16T14:34:53;20.60;98.40
38941;DHT22;43236;47.208;7.518;2022-10-16T14:37:41;20.60;98.30
38941;DHT22;43236;47.208;7.518;2022-10-16T14:40:30;20.60;98.30
38941;DHT22;43236;47.208;7.518;2022-10-16T14:43:21;20.60;98.20
38941;DHT22;43236;47.208;7.518;2022-10-16T14:46:12;20.50;98.00
38941;DHT22;43236;47.208;7.518;2022-10-16T14:49:02;20.50;97.50
38941;DHT22;43236;47.208;7.518;2022-10-16T14:51:51;20.50;98.30
38941;DHT22;43236;47.208;7.518;2022-10-16T14:54:38;20.50;98.70
38941;DHT22;43236;47.208;7.518;2022-10-16T14:57:27;20.60;99.00
38941;DHT22;43236;47.208;7.518;2022-10-16T15:00:21;20.50;98.90
38941;DHT22;43236;47.208;7.518;2022-10-16T15:03:08;20.50;98.90
38941;DHT22;43236;47.208;7.518;2022-10-16T15:05:55;20.50;98.40
38941;DHT22;43236;47.208;7.518;2022-10-16T15:08:43;20.50;98.40
38941;DHT22;43236;47.208;7.518;2022-10-16T15:11:31;20.50;98.50
38941;DHT22;43236;47.208;7.518;2022-10-16T15:14:19;20.50;98.80
38941;DHT22;43236;47.208;7.518;2022-10-16T15:17:09;20.50;98.70
38941;DHT22;43236;47.208;7.518;2022-10-16T15:19:57;20.50;97.80
38941;DHT22;43236;47.208;7.518;2022-10-16T15:22:44;20.50;98.00
38941;DHT22;43236;47.208;7.518;2022-10-16T15:25:35;20.40;98.10
38941;DHT22;43236;47.208;7.518;2022-10-16T15:28:24;20.40;98.20
38941;DHT22;43236;47.208;7.518;2022-10-16T15:31:11;20.40;99.00
38941;DHT22;43236;47.208;7.518;2022-10-16T15:34:00;20.30;98.80
38941;DHT22;43236;47.208;7.518;2022-10-16T15:36:49;20.30;99.00
38941;DHT22;43236;47.208;7.518;2022-10-16T15:39:39;20.30;99.00
38941;DHT22;43236;47.208;7.518;2022-10-16T15:42:26;20.30;99.90
38941;DHT22;43236;47.208;7.518;2022-10-16T15:45:14;20.20;99.90
38941;DHT22;43236;47.208;7.518;2022-10-16T15:48:01;20.30;99.90
38941;DHT22;43236;47.208;7.518;2022-10-16T15:50:49;20.20;99.90
38941;DHT22;43236;47.208;7.518;2022-10-16T15:53:36;20.10;99.90
38941;DHT22;43236;47.208;7.518;2022-10-16T15:56:23;20.10;99.90
38941;DHT22;43236;47.208;7.518;2022-10-16T15:59:11;20.00;99.90
38941;DHT22;43236;47.208;7.518;2022-10-16T16:01:58;20.00;99.90
38941;DHT22;43236;47.208;7.518;2022-10-16T16:04:45;19.90;99.90
38941;DHT22;43236;47.208;7.518;2022-10-16T16:07:34;19.90;99.90
38941;DHT22;43236;47.208;7.518;2022-10-16T16:10:21;19.90;99.90
38941;DHT22;43236;47.208;7.518;2022-10-16T16:13:08;19.80;99.90
38941;DHT22;43236;47.208;7.518;2022-10-16T16:15:55;19.80;99.90
38941;DHT22;43236;47.208;7.518;2022-10-16T16:18:44;19.70;99.90
38941;DHT22;43236;47.208;7.518;2022-10-16T16:21:31;19.70;99.90
38941;DHT22;43236;47.208;7.518;2022-10-16T16:24:19;19.70;99.90
38941;DHT22;43236;47.208;7.518;2022-10-16T16:27:06;19.60;99.90
38941;DHT22;43236;47.208;7.518;2022-10-16T16:29:53;19.60;99.90
38941;DHT22;43236;47.208;7.518;2022-10-16T16:32:41;19.60;99.90
38941;DHT22;43236;47.208;7.518;2022-10-16T16:35:29;19.50;99.90
38941;DHT22;43236;47.208;7.518;2022-10-16T16:38:16;19.50;99.90
38941;DHT22;43236;47.208;7.518;2022-10-16T16:41:12;19.40;99.90
38941;DHT22;43236;47.208;7.518;2022-10-16T16:44:03;19.40;99.90
38941;DHT22;43236;47.208;7.518;2022-10-16T16:46:51;19.30;99.90
38941;DHT22;43236;47.208;7.518;2022-10-16T16:49:38;19.30;99.90
38941;DHT22;43236;47.208;7.518;2022-10-16T16:52:29;19.20;99.90
38941;DHT22;43236;47.208;7.518;2022-10-16T16:55:16;19.20;99.90
38941;DHT22;43236;47.208;7.518;2022-10-16T16:58:05;19.10;99.90
38941;DHT22;43236;47.208;7.518;2022-10-16T17:00:52;19.00;99.90
38941;DHT22;43236;47.208;7.518;2022-10-16T17:03:42;19.10;99.90
38941;DHT22;43236;47.208;7.518;2022-10-16T17:06:29;19.10;99.90
38941;DHT22;43236;47.208;7.518;2022-10-16T17:09:16;19.00;99.90
38941;DHT22;43236;47.208;7.518;2022-10-16T17:12:04;19.00;99.90
38941;DHT22;43236;47.208;7.518;2022-10-16T17:14:52;18.90;99.90
38941;DHT22;43236;47.208;7.518;2022-10-16T17:17:39;18.90;99.90
38941;DHT22;43236;47.208;7.518;2022-10-16T17:20:26;18.80;99.90
38941;DHT22;43236;47.208;7.518;2022-10-16T17:23:15;18.80;99.90
38941;DHT22;43236;47.208;7.518;2022-10-16T17:26:03;18.70;99.90
38941;DHT22;43236;47.208;7.518;2022-10-16T17:28:52;18.70;99.90
38941;DHT22;43236;47.208;7.518;2022-10-16T17:31:40;18.70;99.90
38941;DHT22;43236;47.208;7.518;2022-10-16T17:34:28;18.70;99.90
38941;DHT22;43236;47.208;7.518;2022-10-16T17:37:15;18.60;99.90
38941;DHT22;43236;47.208;7.518;2022-10-16T17:40:03;18.60;99.90
38941;DHT22;43236;47.208;7.518;2022-10-16T17:42:50;18.60;99.90
38941;DHT22;43236;47.208;7.518;2022-10-16T17:45:37;18.50;99.90
38941;DHT22;43236;47.208;7.518;2022-10-16T17:48:26;18.50;99.90
38941;DHT22;43236;47.208;7.518;2022-10-16T17:51:14;18.40;99.90
38941;DHT22;43236;47.208;7.518;2022-10-16T17:54:02;18.40;99.90
38941;DHT22;43236;47.208;7.518;2022-10-16T17:56:49;18.40;99.90